KSRQ/SRQ METAR and TAF weather

Enter ICAO airport designator
Station Type Date Time Source
KSRQ METAR 2020/09/19 04:53 UTC NOAA

KSRQ 190453Z AUTO 00000KT 10SM CLR 26/24 A2990 RMK AO2 SLP124 T02610239 403110261


Station Type Date Time Source
KSRQ Decoded METAR 2020/09/19 04:53 UTC NOAA

SARASOTA/BRADENTON INTERNATIONAL ., FL, United States (KSRQ) 27-24N 082-33W 18M
Sep 19, 2020 - 12:53 AM EDT / 2020.09.19 0453 UTC
Wind: Calm:0
Visibility: 10 mile(s):0
Sky conditions: clear
Temperature: 79.0 F (26.1 C)
Dew Point: 75.0 F (23.9 C)
Relative Humidity: 87%
Pressure (altimeter): 29.9 in. Hg (1012 hPa)
ob: KSRQ 190453Z AUTO 00000KT 10SM CLR 26/24 A2990 RMK AO2 SLP124 T02610239 403110261
cycle: 5

Station Type Date Time Source
KSRQ TAF 2020/09/18 18:34 UTC NOAA

TAF KSRQ 181732Z 1818/1918 26009KT P6SM SCT025 BKN080
FM182100 29007KT P6SM SCT030 BKN130
FM190400 33004KT P6SM SCT150
FM191200 05005KT P6SM FEW120

Example: see airport list